createdAt,value
2019-02-16T00:02:14.046Z,102553.08
2019-02-16T00:04:42.236Z,102553.05
2019-02-16T00:07:10.437Z,102552.78
2019-02-16T00:09:38.644Z,102547.52
2019-02-16T00:12:06.843Z,102545.31
2019-02-16T00:14:35.036Z,102543.61
2019-02-16T00:17:03.231Z,102540.56
2019-02-16T00:19:31.414Z,102540.80
2019-02-16T00:21:59.627Z,102539.42
2019-02-16T00:24:27.822Z,102537.75
2019-02-16T00:26:56.029Z,102540.49
2019-02-16T00:29:24.234Z,102539.95
2019-02-16T00:31:52.437Z,102536.68
2019-02-16T00:34:20.640Z,102534.74
2019-02-16T00:36:48.836Z,102533.64
2019-02-16T00:39:17.058Z,102525.14
2019-02-16T00:41:45.276Z,102522.40
2019-02-16T00:44:13.455Z,102517.95
2019-02-16T00:46:41.666Z,102518.48
2019-02-16T00:49:09.857Z,102513.23
2019-02-16T00:51:38.087Z,102514.00
2019-02-16T00:54:06.268Z,102507.11
2019-02-16T00:56:34.496Z,102497.70
2019-02-16T00:59:02.666Z,102498.77
2019-02-16T01:01:30.864Z,102498.67
2019-02-16T01:03:59.076Z,102499.47
2019-02-16T01:06:27.269Z,102490.10
2019-02-16T01:08:55.452Z,102498.02
2019-02-16T01:11:23.655Z,102491.92
2019-02-16T01:13:51.846Z,102494.05
2019-02-16T01:16:20.035Z,102485.22
2019-02-16T01:18:48.248Z,102480.23
2019-02-16T01:21:22.497Z,102485.62
2019-02-16T01:23:46.364Z,102482.53
2019-02-16T01:26:14.561Z,102467.95
2019-02-16T01:28:42.743Z,102471.19
2019-02-16T01:31:10.934Z,102473.08
2019-02-16T01:33:39.148Z,102461.52
2019-02-16T01:36:07.352Z,102458.20
2019-02-16T01:38:35.560Z,102454.62
2019-02-16T01:41:03.741Z,102449.64
2019-02-16T01:43:31.937Z,102451.50
2019-02-16T01:46:00.126Z,102440.75
2019-02-16T01:48:28.330Z,102437.66
2019-02-16T01:50:56.542Z,102438.11
2019-02-16T01:53:24.741Z,102430.12
2019-02-16T01:55:52.937Z,102430.64
2019-02-16T01:58:21.139Z,102422.34
2019-02-16T02:00:49.320Z,102426.66
2019-02-16T02:03:17.519Z,102424.40
2019-02-16T02:05:45.699Z,102415.88
2019-02-16T02:08:13.966Z,102414.72
2019-02-16T02:10:42.174Z,102415.21
2019-02-16T02:13:10.340Z,102421.47
2019-02-16T02:15:38.537Z,102418.16
2019-02-16T02:18:06.751Z,102413.78
2019-02-16T02:20:34.933Z,102409.36
2019-02-16T02:23:03.131Z,102409.31
2019-02-16T02:25:31.311Z,102407.85
2019-02-16T02:27:59.530Z,102413.84
2019-02-16T02:30:27.745Z,102412.95
2019-02-16T02:32:55.910Z,102408.27
2019-02-16T02:35:24.096Z,102410.99
2019-02-16T02:37:52.296Z,102405.48
2019-02-16T02:40:20.496Z,102407.89
2019-02-16T02:42:48.715Z,102398.33
2019-02-16T02:45:16.899Z,102392.28
2019-02-16T02:47:45.122Z,102388.66
2019-02-16T02:50:13.310Z,102382.87
2019-02-16T02:52:41.513Z,102386.13
2019-02-16T02:55:09.714Z,102381.45
2019-02-16T02:57:37.921Z,102382.77
2019-02-16T03:00:08.547Z,102381.92
2019-02-16T03:02:36.761Z,102375.83
2019-02-16T03:05:06.163Z,102363.48
2019-02-16T03:07:34.389Z,102360.16
2019-02-16T03:10:02.588Z,102366.72
2019-02-16T03:12:30.781Z,102356.58
2019-02-16T03:14:59.004Z,102354.91
2019-02-16T03:17:27.197Z,102353.27
2019-02-16T03:19:55.391Z,102357.84
2019-02-16T03:22:23.577Z,102356.46
2019-02-16T03:24:51.784Z,102350.69
2019-02-16T03:27:25.703Z,102356.41
2019-02-16T03:29:57.185Z,102354.16
2019-02-16T03:32:34.325Z,102352.27
2019-02-16T03:35:27.185Z,102348.42
2019-02-16T03:38:25.844Z,102346.47
2019-02-16T03:40:54.039Z,102341.49
2019-02-16T03:43:22.225Z,102333.23
2019-02-16T03:45:50.454Z,102335.37
2019-02-16T03:48:18.636Z,102331.81
2019-02-16T03:50:46.871Z,102333.17
2019-02-16T03:53:15.121Z,102330.19
2019-02-16T03:55:43.306Z,102328.83
2019-02-16T03:58:11.484Z,102323.67
2019-02-16T04:00:39.684Z,102327.78
2019-02-16T04:03:07.862Z,102330.29
2019-02-16T04:05:36.059Z,102329.78
2019-02-16T04:08:04.258Z,102326.77
2019-02-16T04:10:32.454Z,102324.83
2019-02-16T04:13:00.659Z,102327.25
2019-02-16T04:15:28.885Z,102328.62
2019-02-16T04:17:57.090Z,102329.98
2019-02-16T04:20:25.290Z,102325.05
2019-02-16T04:22:53.488Z,102325.56
2019-02-16T04:25:21.680Z,102324.14
2019-02-16T04:27:49.863Z,102323.03
2019-02-16T04:30:18.059Z,102327.39
2019-02-16T04:32:46.242Z,102322.15
2019-02-16T04:35:14.442Z,102319.67
2019-02-16T04:37:42.622Z,102305.18
2019-02-16T04:40:10.819Z,102310.06
2019-02-16T04:42:39.012Z,102312.80
2019-02-16T04:45:07.217Z,102306.80
2019-02-16T04:47:35.424Z,102311.20
2019-02-16T04:50:04.558Z,102308.75
2019-02-16T04:52:35.178Z,102309.53
2019-02-16T04:55:02.674Z,102304.33
2019-02-16T04:57:30.895Z,102302.91
2019-02-16T04:59:59.091Z,102300.97
2019-02-16T05:02:27.308Z,102297.13
2019-02-16T05:04:55.496Z,102297.91
2019-02-16T05:07:23.696Z,102295.17
2019-02-16T05:09:51.916Z,102293.81
2019-02-16T05:12:20.127Z,102296.55
2019-02-16T05:14:48.306Z,102292.98
2019-02-16T05:17:16.503Z,102293.50
2019-02-16T05:19:44.706Z,102295.91
2019-02-16T05:22:12.901Z,102295.86
2019-02-16T05:24:41.083Z,102294.22
2019-02-16T05:27:09.301Z,102290.38
2019-02-16T05:29:37.501Z,102288.70
2019-02-16T05:32:05.708Z,102286.70
2019-02-16T05:34:33.891Z,102279.30
2019-02-16T05:37:02.116Z,102280.67
2019-02-16T05:39:30.305Z,102279.86
2019-02-16T05:41:58.496Z,102273.83
2019-02-16T05:44:26.710Z,102270.52
2019-02-16T05:46:54.890Z,102273.52
2019-02-16T05:49:23.061Z,102276.63
2019-02-16T05:51:51.272Z,102273.23
2019-02-16T05:54:19.449Z,102276.23
2019-02-16T05:56:47.672Z,102279.66
2019-02-16T05:59:15.889Z,102272.73
2019-02-16T06:01:53.265Z,102274.28
2019-02-16T06:04:14.034Z,102279.64
2019-02-16T06:06:42.226Z,102277.99
2019-02-16T06:09:10.444Z,102279.81
2019-02-16T06:11:38.643Z,102281.31
2019-02-16T06:14:06.826Z,102282.33
2019-02-16T06:16:35.019Z,102277.28
2019-02-16T06:19:03.206Z,102282.45
2019-02-16T06:21:31.401Z,102287.20
2019-02-16T06:23:59.608Z,102275.76
2019-02-16T06:26:27.789Z,102274.52
2019-02-16T06:28:55.982Z,102277.13
2019-02-16T06:31:24.170Z,102267.93
2019-02-16T06:33:52.365Z,102262.56
2019-02-16T06:36:22.180Z,102267.59
2019-02-16T06:38:50.379Z,102263.31
2019-02-16T06:41:18.554Z,102263.95
2019-02-16T06:43:46.745Z,102270.61
2019-02-16T06:46:14.931Z,102270.09
2019-02-16T06:48:43.142Z,102271.23
2019-02-16T06:51:11.329Z,102277.54
2019-02-16T06:53:39.514Z,102283.88
2019-02-16T06:56:09.328Z,102284.73
2019-02-16T06:58:37.558Z,102285.29
2019-02-16T07:01:05.742Z,102288.30
2019-02-16T07:03:33.946Z,102289.97
2019-02-16T07:06:02.123Z,102291.89
2019-02-16T07:08:30.316Z,102291.92
2019-02-16T07:10:58.499Z,102288.65
2019-02-16T07:13:26.714Z,102295.81
2019-02-16T07:16:08.380Z,102300.51
2019-02-16T07:18:38.214Z,102294.23
2019-02-16T07:21:06.400Z,102292.61
2019-02-16T07:23:34.595Z,102305.26
2019-02-16T07:26:04.844Z,102297.62
2019-02-16T07:28:32.718Z,102300.64
2019-02-16T07:31:00.903Z,102300.14
2019-02-16T07:33:29.094Z,102304.03
2019-02-16T07:35:57.277Z,102302.68
2019-02-16T07:38:25.473Z,102292.52
2019-02-16T07:40:53.646Z,102291.18
2019-02-16T07:43:38.839Z,102295.05
2019-02-16T07:46:26.814Z,102302.19
2019-02-16T07:49:05.667Z,102294.19
2019-02-16T07:51:35.487Z,102288.80
2019-02-16T07:54:14.147Z,102287.26
2019-02-16T07:56:43.972Z,102286.47
2019-02-16T07:59:16.841Z,102287.81
2019-02-16T08:01:49.736Z,102282.29
2019-02-16T08:04:19.578Z,102274.03
2019-02-16T08:06:57.933Z,102274.31
2019-02-16T08:09:27.772Z,102278.98
2019-02-16T08:12:00.418Z,102285.36
2019-02-16T08:14:32.902Z,102288.70
2019-02-16T08:17:02.741Z,102300.72
2019-02-16T08:19:47.578Z,102303.09
2019-02-16T08:22:23.379Z,102298.78
2019-02-16T08:25:11.303Z,102285.16
2019-02-16T08:27:44.116Z,102280.67
2019-02-16T08:30:16.669Z,102279.80
2019-02-16T08:32:46.513Z,102283.12
2019-02-16T08:35:16.350Z,102292.81
2019-02-16T08:37:55.196Z,102285.06
2019-02-16T08:40:30.774Z,102292.47
2019-02-16T08:43:00.596Z,102284.96
2019-02-16T08:45:30.441Z,102274.34
2019-02-16T08:48:15.315Z,102277.05
2019-02-16T08:50:45.150Z,102278.60
2019-02-16T08:53:31.412Z,102263.38
2019-02-16T08:56:01.253Z,102264.66
2019-02-16T08:58:49.118Z,102255.80
2019-02-16T09:01:28.125Z,102263.34
2019-02-16T09:04:00.802Z,102261.44
2019-02-16T09:06:46.569Z,102251.40
2019-02-16T09:09:32.998Z,102265.30
2019-02-16T09:12:06.064Z,102260.76
2019-02-16T09:14:35.970Z,102269.39
2019-02-16T09:17:08.243Z,102255.19
2019-02-16T09:19:38.075Z,102266.91
2019-02-16T09:22:10.576Z,102273.56
2019-02-16T09:24:52.628Z,102267.30
2019-02-16T09:27:25.172Z,102268.95
2019-02-16T09:29:54.997Z,102269.31
2019-02-16T09:32:33.867Z,102267.93
2019-02-16T09:35:06.692Z,102274.19
2019-02-16T09:37:42.467Z,102279.20
2019-02-16T09:40:12.284Z,102279.50
2019-02-16T09:42:50.618Z,102293.18
2019-02-16T09:45:38.248Z,102281.30
2019-02-16T09:48:10.790Z,102271.46
2019-02-16T09:50:40.630Z,102268.34
2019-02-16T09:53:10.473Z,102266.95
2019-02-16T09:55:40.292Z,102265.55
2019-02-16T09:58:25.454Z,102270.19
2019-02-16T10:00:58.213Z,102271.32
2019-02-16T10:03:42.776Z,102266.70
2019-02-16T10:06:24.666Z,102266.84
2019-02-16T10:08:57.440Z,102269.36
2019-02-16T10:11:36.505Z,102265.94
2019-02-16T10:14:09.099Z,102265.56
2019-02-16T10:16:50.556Z,102259.09
2019-02-16T10:19:23.325Z,102259.90
2019-02-16T10:22:04.862Z,102257.01
2019-02-16T10:24:52.873Z,102256.25
2019-02-16T10:27:22.738Z,102256.80
2019-02-16T10:29:52.579Z,102258.52
2019-02-16T10:32:25.151Z,102263.45
2019-02-16T10:34:54.987Z,102269.23
2019-02-16T10:37:37.114Z,102270.95
2019-02-16T10:40:07.475Z,102275.63
2019-02-16T10:42:39.963Z,102272.97
2019-02-16T10:45:09.792Z,102281.89
2019-02-16T10:47:42.777Z,102276.78
2019-02-16T10:50:18.767Z,102282.44
2019-02-16T10:52:54.769Z,102285.28
2019-02-16T10:55:24.610Z,102281.91
2019-02-16T10:57:54.448Z,102279.37
2019-02-16T11:00:30.187Z,102280.78
2019-02-16T11:03:18.469Z,102278.16
2019-02-16T11:05:48.314Z,102287.13
2019-02-16T11:08:26.917Z,102283.58
2019-02-16T11:10:56.780Z,102273.70
2019-02-16T11:13:26.656Z,102267.45
2019-02-16T11:15:59.415Z,102263.63
2019-02-16T11:18:41.507Z,102267.84
2019-02-16T11:21:20.585Z,102271.78
2019-02-16T11:23:53.039Z,102268.80
2019-02-16T11:26:22.892Z,102272.55
2019-02-16T11:29:04.452Z,102265.14
2019-02-16T11:31:34.308Z,102262.09
2019-02-16T11:34:10.196Z,102266.64
2019-02-16T11:36:40.038Z,102259.52
2019-02-16T11:39:09.881Z,102256.11
2019-02-16T11:41:42.436Z,102260.41
2019-02-16T11:44:12.289Z,102264.36
2019-02-16T11:46:51.144Z,102254.20
2019-02-16T11:49:26.919Z,102251.86
2019-02-16T11:52:03.409Z,102244.64
2019-02-16T11:54:45.705Z,102252.57
2019-02-16T11:57:30.235Z,102252.66
2019-02-16T12:00:00.230Z,102252.11
2019-02-16T12:02:39.226Z,102244.64
2019-02-16T12:05:01.594Z,102236.31
2019-02-16T12:07:34.091Z,102239.80
2019-02-16T12:10:09.454Z,102236.48
2019-02-16T12:12:45.028Z,102239.56
2019-02-16T12:15:23.580Z,102232.36
2019-02-16T12:17:53.435Z,102226.42
2019-02-16T12:20:35.440Z,102213.52
2019-02-16T12:23:07.959Z,102233.28
2019-02-16T12:25:52.464Z,102240.29
2019-02-16T12:28:37.243Z,102236.66
2019-02-16T12:31:07.092Z,102236.66
2019-02-16T12:33:39.999Z,102212.20
2019-02-16T12:36:15.921Z,102227.71
2019-02-16T12:38:54.680Z,102215.33
2019-02-16T12:41:24.525Z,102215.33
2019-02-16T12:43:54.363Z,102224.16
2019-02-16T12:46:27.069Z,102220.78
2019-02-16T12:48:56.907Z,102217.02
2019-02-16T12:51:38.648Z,102205.95
2019-02-16T12:54:08.715Z,102205.95
2019-02-16T12:56:38.617Z,102212.43
2019-02-16T12:59:17.104Z,102212.43
2019-02-16T13:01:46.959Z,102203.66
2019-02-16T13:04:26.036Z,102207.78
2019-02-16T13:06:55.888Z,102200.09
2019-02-16T13:09:25.725Z,102203.48
2019-02-16T13:11:55.594Z,102198.78
2019-02-16T13:14:37.709Z,102192.50
2019-02-16T13:17:24.123Z,102191.50
2019-02-16T13:19:56.364Z,102190.72
2019-02-16T13:22:28.615Z,102194.25
2019-02-16T13:25:01.211Z,102195.37
2019-02-16T13:27:33.824Z,102194.20
2019-02-16T13:30:09.169Z,102190.84
2019-02-16T13:32:39.014Z,102185.01
2019-02-16T13:35:12.125Z,102185.64
2019-02-16T13:37:41.996Z,102174.83
2019-02-16T13:40:14.792Z,102172.77
2019-02-16T13:43:00.724Z,102173.71
2019-02-16T13:45:30.558Z,102175.22
2019-02-16T13:48:00.409Z,102180.72
2019-02-16T13:50:42.069Z,102175.59
2019-02-16T13:53:11.915Z,102180.27
2019-02-16T13:55:44.554Z,102169.39
2019-02-16T13:58:14.400Z,102163.22
2019-02-16T14:00:44.243Z,102157.88
2019-02-16T14:03:20.376Z,102165.80
2019-02-16T14:05:50.259Z,102155.77
2019-02-16T14:08:22.744Z,102157.73
2019-02-16T14:10:52.576Z,102155.05
2019-02-16T14:13:22.421Z,102156.09
2019-02-16T14:15:58.276Z,102150.50
2019-02-16T14:18:26.486Z,102154.45
2019-02-16T14:20:54.681Z,102160.41
2019-02-16T14:23:22.884Z,102151.33
2019-02-16T14:25:51.083Z,102152.26
2019-02-16T14:28:19.292Z,102141.65
2019-02-16T14:30:47.506Z,102146.66
2019-02-16T14:33:15.715Z,102137.66
2019-02-16T14:35:43.924Z,102140.45
2019-02-16T14:38:16.435Z,102143.95
2019-02-16T14:40:44.637Z,102147.78
2019-02-16T14:43:12.837Z,102146.93
2019-02-16T14:45:41.606Z,102153.81
2019-02-16T14:48:09.814Z,102147.40
2019-02-16T14:50:38.003Z,102152.63
2019-02-16T14:53:06.221Z,102147.97
2019-02-16T14:55:34.456Z,102144.96
2019-02-16T14:58:02.659Z,102147.65
2019-02-16T15:00:30.864Z,102151.22
2019-02-16T15:02:59.067Z,102147.47
2019-02-16T15:05:27.294Z,102147.45
2019-02-16T15:07:55.532Z,102150.20
2019-02-16T15:10:23.733Z,102155.54
2019-02-16T15:12:51.924Z,102157.14
2019-02-16T15:15:20.154Z,102162.72
2019-02-16T15:17:48.351Z,102155.71
2019-02-16T15:20:17.012Z,102160.13
2019-02-16T15:22:45.229Z,102157.66
2019-02-16T15:25:13.439Z,102154.68
2019-02-16T15:27:41.657Z,102150.23
2019-02-16T15:30:18.350Z,102160.16
2019-02-16T15:32:46.546Z,102162.31
2019-02-16T15:35:14.777Z,102164.76
2019-02-16T15:37:43.155Z,102160.48
2019-02-16T15:40:11.528Z,102162.16
2019-02-16T15:42:39.722Z,102154.22
2019-02-16T15:45:12.544Z,102157.53
2019-02-16T15:47:40.743Z,102152.73
2019-02-16T15:50:11.198Z,102152.02
2019-02-16T15:52:39.396Z,102151.71
2019-02-16T15:55:09.538Z,102153.62
2019-02-16T15:57:37.760Z,102153.00
2019-02-16T16:00:10.606Z,102155.24
2019-02-16T16:02:38.812Z,102153.22
2019-02-16T16:05:07.003Z,102157.42
2019-02-16T16:07:35.208Z,102155.97
2019-02-16T16:10:05.053Z,102162.05
2019-02-16T16:12:52.896Z,102159.45
2019-02-16T16:15:42.366Z,102158.81
2019-02-16T16:18:18.367Z,102159.96
2019-02-16T16:20:53.925Z,102165.53
2019-02-16T16:23:38.968Z,102163.55
2019-02-16T16:26:08.813Z,102168.25
2019-02-16T16:28:41.349Z,102174.71
2019-02-16T16:31:11.653Z,102176.09
2019-02-16T16:33:59.563Z,102175.52
2019-02-16T16:36:29.409Z,102175.20
2019-02-16T16:38:59.394Z,102178.20
2019-02-16T16:41:45.533Z,102182.28
2019-02-16T16:44:33.726Z,102178.02
2019-02-16T16:47:09.590Z,102176.88
2019-02-16T16:49:42.174Z,102181.02
2019-02-16T16:52:21.005Z,102180.76
2019-02-16T16:54:59.361Z,102190.78
2019-02-16T16:57:31.907Z,102193.23
2019-02-16T17:00:18.319Z,102195.27
2019-02-16T17:02:50.603Z,102199.04
2019-02-16T17:05:20.445Z,102197.22
2019-02-16T17:08:05.298Z,102194.33
2019-02-16T17:10:47.424Z,102201.40
2019-02-16T17:13:26.028Z,102199.40
2019-02-16T17:15:55.854Z,102207.11
2019-02-16T17:18:43.833Z,102207.33
2019-02-16T17:21:30.020Z,102209.16
2019-02-16T17:23:59.868Z,102210.86
2019-02-16T17:26:37.887Z,102216.11
2019-02-16T17:29:16.442Z,102223.57
2019-02-16T17:31:49.275Z,102225.44
2019-02-16T17:34:25.093Z,102223.23
2019-02-16T17:36:57.582Z,102230.41
2019-02-16T17:39:27.427Z,102234.48
2019-02-16T17:42:09.053Z,102230.20
2019-02-16T17:44:55.067Z,102231.57
2019-02-16T17:47:28.014Z,102237.98
2019-02-16T17:50:00.541Z,102236.11
2019-02-16T17:52:46.589Z,102228.91
2019-02-16T17:55:19.250Z,102230.50
2019-02-16T17:57:51.848Z,102237.63
2019-02-16T18:00:24.333Z,102241.73
2019-02-16T18:02:54.203Z,102235.86
2019-02-16T18:05:27.266Z,102236.28
2019-02-16T18:07:57.105Z,102243.91
2019-02-16T18:10:26.977Z,102245.70
2019-02-16T18:13:06.103Z,102249.40
2019-02-16T18:15:52.164Z,102244.56
2019-02-16T18:18:24.429Z,102243.30
2019-02-16T18:20:56.942Z,102245.68
2019-02-16T18:23:26.779Z,102243.59
2019-02-16T18:25:59.449Z,102241.75
2019-02-16T18:28:31.690Z,102244.42
2019-02-16T18:31:04.571Z,102238.45
2019-02-16T18:33:49.677Z,102240.48
2019-02-16T18:36:31.238Z,102239.17
2019-02-16T18:39:06.915Z,102233.02
2019-02-16T18:41:36.753Z,102244.48
2019-02-16T18:44:12.554Z,102248.48
2019-02-16T18:47:00.532Z,102247.95
2019-02-16T18:49:33.056Z,102244.94
2019-02-16T18:52:02.919Z,102243.83
2019-02-16T18:54:35.656Z,102246.05
2019-02-16T18:57:06.898Z,102247.17
2019-02-16T18:59:53.216Z,102236.02
2019-02-16T19:02:39.268Z,102234.70
2019-02-16T19:05:18.435Z,102234.81
2019-02-16T19:07:48.329Z,102234.10
2019-02-16T19:10:20.630Z,102227.33
2019-02-16T19:12:50.467Z,102233.98
2019-02-16T19:15:36.747Z,102236.93
2019-02-16T19:18:21.857Z,102239.23
2019-02-16T19:20:54.470Z,102237.13
2019-02-16T19:23:40.747Z,102252.66
2019-02-16T19:26:13.504Z,102248.75
2019-02-16T19:28:55.671Z,102247.86
2019-02-16T19:31:25.518Z,102249.38
2019-02-16T19:34:04.427Z,102248.19
2019-02-16T19:36:43.174Z,102248.87
2019-02-16T19:39:18.502Z,102244.85
2019-02-16T19:42:04.200Z,102246.64
2019-02-16T19:44:36.981Z,102250.90
2019-02-16T19:47:06.826Z,102245.77
2019-02-16T19:49:45.641Z,102244.47
2019-02-16T19:52:24.287Z,102243.73
2019-02-16T19:54:56.821Z,102242.11
2019-02-16T19:57:27.358Z,102251.83
2019-02-16T20:00:06.356Z,102249.41
2019-02-16T20:02:54.650Z,102245.89
2019-02-16T20:05:40.617Z,102249.83
2019-02-16T20:08:19.612Z,102253.49
2019-02-16T20:11:01.161Z,102252.69
2019-02-16T20:13:47.665Z,102251.38
2019-02-16T20:16:20.455Z,102248.14
2019-02-16T20:18:50.292Z,102244.33
2019-02-16T20:21:26.058Z,102248.77
2019-02-16T20:24:04.870Z,102251.00
2019-02-16T20:26:52.877Z,102257.13
2019-02-16T20:29:22.714Z,102250.30
2019-02-16T20:31:55.499Z,102249.51
2019-02-16T20:34:36.949Z,102246.77
2019-02-16T20:37:22.052Z,102244.61
2019-02-16T20:39:51.887Z,102250.42
2019-02-16T20:42:40.059Z,102247.97
2019-02-16T20:45:16.230Z,102252.41
2019-02-16T20:47:48.707Z,102250.53
2019-02-16T20:50:33.489Z,102250.53
2019-02-16T20:53:03.345Z,102254.41
2019-02-16T20:55:33.174Z,102249.20
2019-02-16T20:58:20.501Z,102258.55
2019-02-16T21:01:02.391Z,102263.52
2019-02-16T21:03:32.229Z,102268.77
2019-02-16T21:06:02.067Z,102268.52
2019-02-16T21:08:40.980Z,102262.72
2019-02-16T21:11:16.563Z,102261.89
2019-02-16T21:13:46.405Z,102264.39
2019-02-16T21:16:32.554Z,102268.52
2019-02-16T21:19:14.698Z,102270.73
2019-02-16T21:22:02.999Z,102269.61
2019-02-16T21:24:48.061Z,102272.36
2019-02-16T21:27:23.899Z,102269.61
2019-02-16T21:30:09.967Z,102276.48
2019-02-16T21:32:39.788Z,102273.19
2019-02-16T21:35:09.650Z,102262.72
2019-02-16T21:37:42.236Z,102262.97
2019-02-16T21:40:15.145Z,102272.06
2019-02-16T21:42:46.304Z,102267.39
2019-02-16T21:45:18.993Z,102269.31
2019-02-16T21:47:51.280Z,102267.94
2019-02-16T21:50:37.310Z,102256.63
2019-02-16T21:53:07.144Z,102268.19
2019-02-16T21:55:39.770Z,102260.17
2019-02-16T21:58:25.770Z,102258.50
2019-02-16T22:01:01.563Z,102268.97
2019-02-16T22:03:34.371Z,102260.95
2019-02-16T22:06:04.206Z,102257.36
2019-02-16T22:08:50.460Z,102254.31
2019-02-16T22:11:20.298Z,102256.47
2019-02-16T22:13:48.486Z,102272.11
2019-02-16T22:16:16.694Z,102269.88
2019-02-16T22:18:44.879Z,102266.77
2019-02-16T22:21:13.106Z,102276.34
2019-02-16T22:23:41.297Z,102270.20
2019-02-16T22:26:09.517Z,102272.60
2019-02-16T22:28:37.732Z,102268.39
2019-02-16T22:31:05.938Z,102269.16
2019-02-16T22:33:34.137Z,102274.63
2019-02-16T22:36:02.333Z,102278.16
2019-02-16T22:38:30.520Z,102273.69
2019-02-16T22:40:58.753Z,102275.23
2019-02-16T22:43:26.948Z,102274.66
2019-02-16T22:45:55.151Z,102268.55
2019-02-16T22:48:23.382Z,102273.16
2019-02-16T22:50:51.573Z,102270.36
2019-02-16T22:53:19.766Z,102275.56
2019-02-16T22:55:47.977Z,102272.16
2019-02-16T22:58:16.190Z,102267.14
2019-02-16T23:00:46.027Z,102265.97
2019-02-16T23:03:14.232Z,102270.87
2019-02-16T23:05:42.429Z,102270.55
2019-02-16T23:08:10.656Z,102275.44
2019-02-16T23:10:38.873Z,102283.13
2019-02-16T23:13:07.089Z,102284.19
2019-02-16T23:15:35.278Z,102282.17
2019-02-16T23:18:03.489Z,102279.09
2019-02-16T23:20:31.683Z,102277.92
2019-02-16T23:22:59.920Z,102277.63
2019-02-16T23:25:28.117Z,102272.67
2019-02-16T23:27:56.326Z,102279.83
2019-02-16T23:30:24.541Z,102279.28
2019-02-16T23:32:52.755Z,102278.45
2019-02-16T23:35:20.975Z,102278.14
2019-02-16T23:37:49.204Z,102277.59
2019-02-16T23:40:17.392Z,102278.98
2019-02-16T23:42:45.597Z,102281.19
2019-02-16T23:45:13.812Z,102274.28
2019-02-16T23:47:42.040Z,102270.11
2019-02-16T23:50:10.905Z,102277.55
2019-02-16T23:52:39.115Z,102276.69
2019-02-16T23:55:09.707Z,102274.70
2019-02-16T23:57:37.918Z,102266.38
